createdAt,value
2018-12-21T10:39:13.157Z,7.60
2018-12-21T10:41:40.713Z,7.70
2018-12-21T10:44:08.227Z,7.70
2018-12-21T10:46:35.744Z,7.70
2018-12-21T10:49:03.280Z,7.80
2018-12-21T10:51:30.797Z,7.80
2018-12-21T10:53:58.321Z,7.90
2018-12-21T10:56:25.829Z,7.90
2018-12-21T10:58:53.337Z,7.80
2018-12-21T11:01:20.971Z,7.80
2018-12-21T11:03:48.493Z,7.90
2018-12-21T11:06:15.996Z,7.90
2018-12-21T11:08:43.513Z,7.90
2018-12-21T11:11:11.065Z,7.90
2018-12-21T11:13:38.575Z,7.80
2018-12-21T11:16:07.047Z,7.90
2018-12-21T11:18:34.974Z,7.90
2018-12-21T11:21:02.516Z,7.90
2018-12-21T11:23:30.144Z,7.90
2018-12-21T11:25:58.137Z,7.90
2018-12-21T11:28:25.789Z,7.90
2018-12-21T11:30:53.960Z,7.90
2018-12-21T11:33:21.475Z,7.90
2018-12-21T11:35:49.580Z,7.90
2018-12-21T11:38:17.117Z,7.90
2018-12-21T11:40:45.216Z,7.90
2018-12-21T11:43:12.726Z,7.90
2018-12-21T11:45:40.253Z,7.80
2018-12-21T11:48:07.887Z,7.80
2018-12-21T11:50:35.397Z,7.80
2018-12-21T11:53:02.938Z,7.90
2018-12-21T11:55:30.444Z,7.90
2018-12-21T11:57:57.961Z,8.00
2018-12-21T12:00:25.481Z,8.00
2018-12-21T12:02:53.549Z,8.00
2018-12-21T12:05:21.064Z,8.00
2018-12-21T12:07:49.098Z,8.00
2018-12-21T12:10:16.625Z,8.00
2018-12-21T12:12:45.090Z,8.00
2018-12-21T12:15:14.548Z,8.10
2018-12-21T12:17:44.596Z,8.10
2018-12-21T12:20:12.102Z,8.20
2018-12-21T12:22:39.854Z,8.20
2018-12-21T12:25:07.508Z,8.20
2018-12-21T12:27:35.163Z,8.20
2018-12-21T12:30:03.069Z,8.20
2018-12-21T12:32:30.594Z,8.20
2018-12-21T12:34:58.127Z,8.20
2018-12-21T12:37:25.742Z,8.20
2018-12-21T12:39:53.245Z,8.20
2018-12-21T12:42:20.757Z,8.20
2018-12-21T12:44:48.948Z,8.20
2018-12-21T12:47:16.493Z,8.20
2018-12-21T12:49:44.382Z,8.10
2018-12-21T12:52:11.905Z,8.20
2018-12-21T12:54:39.961Z,8.20
2018-12-21T12:57:07.481Z,8.20
2018-12-21T12:59:35.003Z,8.10
2018-12-21T13:02:02.508Z,8.20
2018-12-21T13:04:30.027Z,8.10
2018-12-21T13:07:00.082Z,8.10
2018-12-21T13:09:27.594Z,8.10
2018-12-21T13:11:55.103Z,8.10
2018-12-21T13:14:22.617Z,8.10
2018-12-21T13:16:50.124Z,8.10
2018-12-21T13:19:17.741Z,8.10
2018-12-21T13:21:45.285Z,8.10
2018-12-21T13:24:13.241Z,8.10
2018-12-21T13:26:40.752Z,8.10
2018-12-21T13:29:08.616Z,8.20
2018-12-21T13:31:36.121Z,8.20
2018-12-21T13:34:03.868Z,8.20
2018-12-21T13:36:31.384Z,8.30
2018-12-21T13:38:59.425Z,8.30
2018-12-21T13:41:26.925Z,8.40
2018-12-21T13:43:54.431Z,8.40
2018-12-21T13:46:21.936Z,8.50
2018-12-21T13:48:49.440Z,8.40
2018-12-21T13:51:16.946Z,8.50
2018-12-21T14:01:20.807Z,8.50
2018-12-21T14:03:48.630Z,8.50
2018-12-21T14:06:16.145Z,8.50
2018-12-21T14:08:43.992Z,8.50
2018-12-21T14:11:11.508Z,8.50
2018-12-21T14:13:39.147Z,8.50
2018-12-21T14:16:07.634Z,8.50
2018-12-21T14:18:35.149Z,8.50
2018-12-21T14:21:08.573Z,8.50
2018-12-21T14:23:36.096Z,8.50
2018-12-21T14:26:03.693Z,8.50
2018-12-21T14:28:31.209Z,8.60
2018-12-21T14:30:58.724Z,8.60
2018-12-21T14:33:26.237Z,8.60
2018-12-21T14:35:53.761Z,8.60
2018-12-21T14:38:21.284Z,8.60
2018-12-21T14:40:48.788Z,8.60
2018-12-21T14:43:16.296Z,8.70
2018-12-21T14:45:43.896Z,8.70
2018-12-21T14:48:12.942Z,8.60
2018-12-21T14:50:40.456Z,8.60
2018-12-21T14:53:08.431Z,8.70
2018-12-21T14:55:37.631Z,8.60
2018-12-21T14:58:05.378Z,8.60
2018-12-21T15:00:33.306Z,8.60
2018-12-21T15:03:00.822Z,8.60
2018-12-21T15:05:28.618Z,8.60
2018-12-21T15:07:56.119Z,8.50
2018-12-21T15:10:23.628Z,8.50
2018-12-21T15:12:52.556Z,8.50
2018-12-21T15:15:20.060Z,8.50
2018-12-21T15:17:48.031Z,8.60
2018-12-21T15:20:15.542Z,8.60
2018-12-21T15:22:43.291Z,8.60
2018-12-21T15:25:10.889Z,8.60
2018-12-21T15:27:38.634Z,8.60
2018-12-21T15:30:08.216Z,8.50
2018-12-21T15:32:35.756Z,8.50
2018-12-21T15:35:04.405Z,8.50
2018-12-21T15:37:32.840Z,8.50
2018-12-21T15:40:00.341Z,8.50
2018-12-21T15:42:28.172Z,8.50
2018-12-21T15:44:55.677Z,8.50
2018-12-21T15:47:23.185Z,8.40
2018-12-21T15:49:51.899Z,8.40
2018-12-21T15:52:19.972Z,8.50
2018-12-21T15:54:47.908Z,8.40
2018-12-21T15:57:15.422Z,8.50
2018-12-21T15:59:42.928Z,8.40
2018-12-21T16:02:10.487Z,8.30
2018-12-21T16:04:38.023Z,8.30
2018-12-21T16:07:05.542Z,8.30
2018-12-21T16:09:33.056Z,8.30
2018-12-21T16:12:00.572Z,8.20
2018-12-21T16:14:34.228Z,8.30
2018-12-21T16:16:57.622Z,8.30
2018-12-21T16:19:25.149Z,8.30
2018-12-21T16:21:52.657Z,8.40
2018-12-21T16:24:20.163Z,8.40
2018-12-21T16:26:47.688Z,8.40
2018-12-21T16:29:15.220Z,8.30
2018-12-21T16:31:42.748Z,8.30
2018-12-21T16:34:11.175Z,8.30
2018-12-21T16:36:38.683Z,8.30
2018-12-21T16:39:06.860Z,8.30
2018-12-21T16:41:34.373Z,8.30
2018-12-21T16:44:02.152Z,8.30
2018-12-21T16:46:29.660Z,8.20
2018-12-21T16:48:58.067Z,8.20
2018-12-21T16:51:25.908Z,8.20
2018-12-21T16:53:53.428Z,8.20
2018-12-21T16:56:21.352Z,8.20
2018-12-21T16:58:48.946Z,8.20
2018-12-21T17:01:16.969Z,8.20
2018-12-21T17:03:44.493Z,8.10
2018-12-21T17:06:12.172Z,8.20
2018-12-21T17:08:39.681Z,8.20
2018-12-21T17:11:07.198Z,8.20
2018-12-21T17:13:34.712Z,8.20
2018-12-21T17:16:03.402Z,8.10
2018-12-21T17:18:31.347Z,8.20
2018-12-21T17:20:58.888Z,8.10
2018-12-21T17:23:26.736Z,8.10
2018-12-21T17:25:54.304Z,8.10
2018-12-21T17:28:22.147Z,8.10
2018-12-21T17:30:49.656Z,8.10
2018-12-21T17:33:17.433Z,8.10
2018-12-21T17:35:44.973Z,8.00
2018-12-21T17:38:12.716Z,8.00
2018-12-21T17:40:40.232Z,8.00
2018-12-21T17:43:07.744Z,8.00
2018-12-21T17:45:35.258Z,8.00
2018-12-21T17:48:02.884Z,8.00
2018-12-21T17:50:30.415Z,8.10
2018-12-21T17:52:57.928Z,8.10
2018-12-21T17:55:25.461Z,8.10
2018-12-21T17:57:53.007Z,8.10
2018-12-21T18:00:20.516Z,8.10
2018-12-21T18:02:48.048Z,8.20
2018-12-21T18:05:16.254Z,8.20
2018-12-21T18:07:43.771Z,8.20
2018-12-21T18:10:12.527Z,8.30
2018-12-21T18:12:40.131Z,8.30
2018-12-21T18:15:08.934Z,8.30
2018-12-21T18:17:36.871Z,8.30
2018-12-21T18:20:07.769Z,8.30
2018-12-21T18:22:35.279Z,8.30
2018-12-21T18:25:05.968Z,8.30
2018-12-21T18:27:33.487Z,8.30
2018-12-21T18:30:01.335Z,8.30
2018-12-21T18:32:28.948Z,8.30
2018-12-21T18:34:58.883Z,8.30
2018-12-21T18:37:27.279Z,8.30
2018-12-21T18:39:54.804Z,8.40
2018-12-21T18:42:22.336Z,8.40
2018-12-21T18:44:49.888Z,8.30
2018-12-21T18:47:17.430Z,8.30
2018-12-21T18:49:44.982Z,8.30
2018-12-21T18:52:12.489Z,8.30
2018-12-21T18:54:40.070Z,8.30
2018-12-21T18:57:07.588Z,8.30
2018-12-21T18:59:35.104Z,8.40
2018-12-21T19:02:02.651Z,8.40
2018-12-21T19:04:30.166Z,8.40
2018-12-21T19:06:58.750Z,8.40
2018-12-21T19:09:26.624Z,8.40
2018-12-21T19:11:54.133Z,8.40
2018-12-21T19:14:22.071Z,8.40
2018-12-21T19:16:49.601Z,8.40
2018-12-21T19:19:17.647Z,8.30
2018-12-21T19:21:47.206Z,8.30
2018-12-21T19:24:14.737Z,8.30
2018-12-21T19:26:42.450Z,8.30
2018-12-21T19:29:09.969Z,8.30
2018-12-21T19:31:37.525Z,8.40
2018-12-21T19:34:05.048Z,8.40
2018-12-21T19:36:32.566Z,8.40
2018-12-21T19:39:00.073Z,8.40
2018-12-21T19:41:27.582Z,8.40
2018-12-21T19:43:55.098Z,8.40
2018-12-21T19:46:22.627Z,8.40
2018-12-21T19:48:50.142Z,8.40
2018-12-21T19:51:17.668Z,8.40
2018-12-21T19:53:45.870Z,8.40
2018-12-21T19:56:15.167Z,8.40
2018-12-21T19:58:42.684Z,8.40
2018-12-21T20:01:10.210Z,8.40
2018-12-21T20:03:37.727Z,8.40
2018-12-21T20:06:05.246Z,8.50
2018-12-21T20:08:33.026Z,8.50
2018-12-21T20:11:00.749Z,8.50
2018-12-21T20:13:28.256Z,8.50
2018-12-21T20:15:56.319Z,8.60
2018-12-21T20:18:23.832Z,8.70
2018-12-21T20:20:51.872Z,8.70
2018-12-21T20:23:19.412Z,8.70
2018-12-21T20:25:46.924Z,8.60
2018-12-21T20:28:14.582Z,8.60
2018-12-21T20:30:42.116Z,8.70
2018-12-21T20:33:09.635Z,8.60
2018-12-21T20:35:37.548Z,8.70
2018-12-21T20:38:05.555Z,8.60
2018-12-21T20:40:33.065Z,8.70
2018-12-21T20:43:01.021Z,8.70
2018-12-21T20:45:28.551Z,8.60
2018-12-21T20:47:56.576Z,8.60
2018-12-21T20:50:24.088Z,8.70
2018-12-21T20:52:51.612Z,8.60
2018-12-21T20:55:19.125Z,8.60
2018-12-21T20:57:48.083Z,8.70
2018-12-21T21:00:17.515Z,8.70
2018-12-21T21:02:45.660Z,8.70
2018-12-21T21:05:13.175Z,8.70
2018-12-21T21:07:41.589Z,8.70
2018-12-21T21:10:11.180Z,8.70
2018-12-21T21:12:42.002Z,8.80
2018-12-21T21:15:11.688Z,8.80
2018-12-21T21:17:39.201Z,8.70
2018-12-21T21:20:12.432Z,8.70
2018-12-21T21:22:40.385Z,8.70
2018-12-21T21:25:07.897Z,8.70
2018-12-21T21:27:35.979Z,8.70
2018-12-21T21:30:10.646Z,8.80
2018-12-21T21:32:38.181Z,8.80
2018-12-21T21:35:07.249Z,8.80
2018-12-21T21:37:35.179Z,8.80
2018-12-21T21:40:11.608Z,8.80
2018-12-21T21:42:39.153Z,8.80
2018-12-21T21:45:08.844Z,8.80
2018-12-21T21:47:36.352Z,8.80
2018-12-21T21:50:07.780Z,8.80
2018-12-21T21:52:35.904Z,8.90
2018-12-21T21:55:03.514Z,8.90
2018-12-21T21:57:38.988Z,8.80
2018-12-21T22:00:01.246Z,8.90
2018-12-21T22:02:28.762Z,8.80
2018-12-21T22:04:56.280Z,8.80
2018-12-21T22:07:23.995Z,8.80
2018-12-21T22:09:51.511Z,8.80
2018-12-21T22:12:19.038Z,8.80
2018-12-21T22:14:46.548Z,8.80
2018-12-21T22:17:14.384Z,8.80
2018-12-21T22:19:42.008Z,8.70
2018-12-21T22:22:10.482Z,8.80
2018-12-21T22:24:38.294Z,8.70
2018-12-21T22:27:06.305Z,8.70
2018-12-21T22:29:35.680Z,8.70
2018-12-21T22:32:03.490Z,8.70
2018-12-21T22:34:32.379Z,8.70
2018-12-21T22:37:00.801Z,8.70
2018-12-21T22:39:28.313Z,8.80
2018-12-21T22:41:56.272Z,8.80
2018-12-21T22:44:23.789Z,8.80
2018-12-21T22:46:51.413Z,8.80
2018-12-21T22:49:18.938Z,8.70
2018-12-21T22:51:46.607Z,8.80
2018-12-21T22:54:14.910Z,8.80
2018-12-21T22:56:43.450Z,8.80
2018-12-21T22:59:11.000Z,8.70
2018-12-21T23:01:38.781Z,8.70
2018-12-21T23:04:06.293Z,8.70
2018-12-21T23:06:33.853Z,8.70
2018-12-21T23:09:01.434Z,8.60
2018-12-21T23:11:29.676Z,8.60
2018-12-21T23:13:57.183Z,8.70
2018-12-21T23:16:25.022Z,8.70
2018-12-21T23:18:52.546Z,8.80
2018-12-21T23:21:20.601Z,8.90
2018-12-21T23:23:48.112Z,8.90
2018-12-21T23:26:16.291Z,9.00
2018-12-21T23:28:44.267Z,9.00
2018-12-21T23:31:11.777Z,9.00
2018-12-21T23:33:39.837Z,9.00
2018-12-21T23:36:07.337Z,9.00
2018-12-21T23:38:35.216Z,9.00
2018-12-21T23:41:02.762Z,9.00
2018-12-21T23:43:30.641Z,8.90
2018-12-21T23:45:58.151Z,8.90
2018-12-21T23:48:26.197Z,8.90
2018-12-21T23:50:53.733Z,8.80
2018-12-21T23:53:21.863Z,8.80
2018-12-21T23:55:49.375Z,8.80
2018-12-21T23:58:17.024Z,8.80
